Portada
METAR-TAF:

METAR-TAF

Aeropuertos :

Portorož, Eslovenia

latitud: 45-31N, longitud: 013-34E, altitud: 95 m

Observación

El informe se hizo hace 26 minutos, a las 01:30 UTC
Viento 2 kt con dirección variable
Temperatura 16°C
Humedad 55%
Presión 1017 hPa
Visibilidad 10 km o más

METAR: LJPZ 010130Z AUTO VRB02KT 9999 BKN075/// BKN095/// 16/07 Q1017

Hora: 03:56 (01:56 UTC)

Pronóstico

El informe se hizo hace 2 horas y 56 minutos, a las 23:00 UTC
Pronóstico válido del 01 a las 00 UTC al 01 a las 09 UTC
Viento 5 kt del este-sureste
Visibilidad 10 km o más
sin nubes por debajo de 1500 m y sin presencia de cumulonimbus.

TAF: LJPZ 312300Z 0100/0109 12005KT CAVOK

Observaciones y pronósticos meteorológicos de más de 4000 aeropuertos (mensajes METAR y TAF).

Los puntos amarillos y rojos representan las estaciones disponibles.

Ponga el ratón en el punto deseado para ver el nombre de la estación.

Haga clic para ver las observaciones y los pronósticos meteorológicos.

Para cambiar el mapa : haga clic en los botones verdes con una cruz de color negro para hacer un zoom, en el botón verde con un guión para alejar o en las flechas verdes para mapas adyacentes.


METAR-TAF: